createdAt,value
2019-04-07T00:01:14.580Z,9.28
2019-04-07T00:03:46.379Z,9.31
2019-04-07T00:06:17.960Z,9.21
2019-04-07T00:08:49.767Z,9.20
2019-04-07T00:11:21.514Z,9.07
2019-04-07T00:13:53.096Z,9.03
2019-04-07T00:16:26.415Z,9.15
2019-04-07T00:18:58.526Z,9.09
2019-04-07T00:21:29.406Z,8.97
2019-04-07T00:24:02.414Z,9.08
2019-04-07T00:26:34.258Z,9.07
2019-04-07T00:29:05.836Z,9.03
2019-04-07T00:31:37.468Z,8.95
2019-04-07T00:34:09.599Z,8.88
2019-04-07T00:36:41.192Z,9.06
2019-04-07T00:39:12.852Z,9.10
2019-04-07T00:41:44.430Z,8.86
2019-04-07T00:44:16.020Z,8.82
2019-04-07T00:46:47.695Z,8.98
2019-04-07T00:49:19.378Z,8.90
2019-04-07T00:51:52.940Z,9.07
2019-04-07T00:54:25.273Z,9.01
2019-04-07T00:56:57.752Z,8.98
2019-04-07T00:59:29.709Z,9.04
2019-04-07T01:02:00.584Z,8.83
2019-04-07T01:04:31.946Z,8.98
2019-04-07T01:07:03.657Z,8.93
2019-04-07T01:09:35.341Z,8.79
2019-04-07T01:12:07.195Z,8.67
2019-04-07T01:14:40.072Z,8.75
2019-04-07T01:17:11.714Z,8.82
2019-04-07T01:19:44.221Z,8.79
2019-04-07T01:22:16.567Z,8.70
2019-04-07T01:24:47.483Z,8.59
2019-04-07T01:27:19.215Z,8.65
2019-04-07T01:29:51.683Z,8.61
2019-04-07T01:32:24.609Z,8.72
2019-04-07T01:34:56.184Z,8.70
2019-04-07T01:37:28.982Z,8.51
2019-04-07T01:40:01.546Z,8.61
2019-04-07T01:42:37.604Z,8.50
2019-04-07T01:45:28.009Z,8.54
2019-04-07T01:48:03.909Z,8.61
2019-04-07T01:50:40.137Z,8.55
2019-04-07T01:53:28.273Z,8.56
2019-04-07T01:56:07.624Z,8.42
2019-04-07T01:58:40.919Z,8.45
2019-04-07T02:01:23.089Z,8.34
2019-04-07T02:03:58.430Z,8.42
2019-04-07T02:06:32.068Z,8.42
2019-04-07T02:09:12.707Z,8.40
2019-04-07T02:12:03.796Z,8.27
2019-04-07T02:14:53.360Z,8.24
2019-04-07T02:17:38.259Z,8.28
2019-04-07T02:20:17.868Z,8.28
2019-04-07T02:22:53.177Z,8.22
2019-04-07T02:25:30.018Z,8.15
2019-04-07T02:28:09.051Z,8.15
2019-04-07T02:30:45.957Z,8.17
2019-04-07T02:33:28.778Z,8.17
2019-04-07T02:36:17.978Z,8.21
2019-04-07T02:38:45.713Z,8.20
2019-04-07T02:41:22.198Z,8.13
2019-04-07T02:44:04.928Z,8.13
2019-04-07T02:46:38.362Z,8.11
2019-04-07T02:49:12.316Z,8.04
2019-04-07T02:51:47.796Z,8.07
2019-04-07T02:54:24.664Z,8.01
2019-04-07T02:57:00.793Z,8.03
2019-04-07T02:59:44.281Z,7.99
2019-04-07T03:02:30.336Z,7.92
2019-04-07T03:05:13.700Z,7.91
2019-04-07T03:07:53.171Z,7.89
2019-04-07T03:10:41.355Z,7.99
2019-04-07T03:13:26.828Z,7.99
2019-04-07T03:16:01.945Z,7.86
2019-04-07T03:18:38.941Z,7.86
2019-04-07T03:21:19.464Z,7.87
2019-04-07T03:24:04.906Z,8.02
2019-04-07T03:26:55.631Z,7.81
2019-04-07T03:29:28.827Z,8.09
2019-04-07T03:32:02.846Z,7.96
2019-04-07T03:34:40.822Z,8.17
2019-04-07T03:37:32.245Z,8.14
2019-04-07T03:40:08.295Z,8.17
2019-04-07T03:42:41.779Z,8.14
2019-04-07T03:45:15.727Z,8.20
2019-04-07T03:47:52.416Z,8.27
2019-04-07T03:50:31.612Z,8.38
2019-04-07T03:53:20.829Z,8.55
2019-04-07T03:55:57.721Z,8.44
2019-04-07T03:58:39.852Z,8.59
2019-04-07T04:01:28.500Z,8.66
2019-04-07T04:04:14.238Z,8.70
2019-04-07T04:07:17.782Z,8.59
2019-04-07T04:09:45.481Z,8.79
2019-04-07T04:12:27.748Z,8.91
2019-04-07T04:15:10.918Z,9.19
2019-04-07T04:17:42.544Z,9.11
2019-04-07T04:20:14.764Z,9.02
2019-04-07T04:22:46.558Z,9.44
2019-04-07T04:25:19.030Z,9.45
2019-04-07T04:27:51.090Z,9.78
2019-04-07T04:30:22.755Z,9.65
2019-04-07T04:32:54.350Z,9.92
2019-04-07T04:35:26.629Z,9.93
2019-04-07T04:37:59.656Z,10.14
2019-04-07T04:40:32.309Z,10.21
2019-04-07T04:43:04.685Z,10.26
2019-04-07T04:45:36.578Z,10.87
2019-04-07T04:48:08.756Z,10.65
2019-04-07T04:50:40.504Z,10.60
2019-04-07T04:53:12.524Z,10.68
2019-04-07T04:55:44.192Z,10.65
2019-04-07T04:58:15.753Z,10.67
2019-04-07T05:00:48.479Z,10.95
2019-04-07T05:03:21.576Z,10.70
2019-04-07T05:05:52.466Z,10.98
2019-04-07T05:08:24.728Z,10.95
2019-04-07T05:10:56.552Z,11.37
2019-04-07T05:13:28.331Z,11.75
2019-04-07T05:16:00.526Z,11.45
2019-04-07T05:18:32.434Z,11.83
2019-04-07T05:21:04.305Z,11.79
2019-04-07T05:23:36.035Z,11.81
2019-04-07T05:26:07.877Z,11.92
2019-04-07T05:28:40.610Z,12.47
2019-04-07T05:31:12.270Z,13.16
2019-04-07T05:36:03.868Z,14.64
2019-04-07T05:38:35.703Z,14.52
2019-04-07T05:41:06.585Z,14.39
2019-04-07T05:43:38.172Z,14.98
2019-04-07T05:46:09.856Z,14.66
2019-04-07T05:48:42.047Z,14.82
2019-04-07T05:51:14.354Z,15.45
2019-04-07T05:53:47.405Z,15.11
2019-04-07T05:56:19.818Z,14.70
2019-04-07T05:58:51.770Z,14.47
2019-04-07T06:01:24.535Z,14.53
2019-04-07T06:03:56.712Z,14.72
2019-04-07T06:06:27.911Z,14.36
2019-04-07T06:08:59.822Z,15.28
2019-04-07T06:11:34.016Z,14.99
2019-04-07T06:14:05.015Z,14.82
2019-04-07T06:16:37.772Z,15.11
2019-04-07T06:19:09.439Z,15.65
2019-04-07T06:21:41.617Z,14.83
2019-04-07T06:24:13.421Z,15.40
2019-04-07T06:26:48.132Z,15.26
2019-04-07T06:29:18.354Z,14.60
2019-04-07T06:31:49.887Z,14.50
2019-04-07T06:34:21.635Z,14.13
2019-04-07T06:36:55.324Z,14.48
2019-04-07T06:39:26.715Z,14.77
2019-04-07T06:42:01.366Z,14.85
2019-04-07T06:44:33.472Z,15.25
2019-04-07T06:47:16.750Z,15.52
2019-04-07T06:49:53.727Z,15.93
2019-04-07T06:52:39.802Z,16.60
2019-04-07T06:55:29.666Z,15.73
2019-04-07T06:58:12.883Z,15.57
2019-04-07T07:00:49.287Z,15.68
2019-04-07T07:03:39.853Z,15.45
2019-04-07T07:06:25.192Z,15.64
2019-04-07T07:09:08.288Z,15.98
2019-04-07T07:11:44.105Z,16.20
2019-04-07T07:14:32.391Z,17.01
2019-04-07T07:17:00.414Z,17.11
2019-04-07T07:19:51.171Z,16.68
2019-04-07T07:22:36.392Z,16.53
2019-04-07T07:25:10.325Z,16.89
2019-04-07T07:27:42.731Z,16.84
2019-04-07T07:30:18.354Z,17.65
2019-04-07T07:32:49.753Z,17.12
2019-04-07T07:35:22.275Z,17.13
2019-04-07T07:37:57.585Z,17.35
2019-04-07T07:40:27.564Z,17.25
2019-04-07T07:42:59.380Z,17.74
2019-04-07T07:45:31.723Z,16.95
2019-04-07T07:48:03.322Z,17.28
2019-04-07T07:50:38.028Z,17.68
2019-04-07T07:53:08.194Z,17.66
2019-04-07T07:55:40.198Z,18.34
2019-04-07T07:58:12.282Z,17.86
2019-04-07T08:00:44.838Z,18.17
2019-04-07T08:03:18.897Z,18.30
2019-04-07T08:05:51.336Z,18.41
2019-04-07T08:08:23.446Z,18.34
2019-04-07T08:10:58.563Z,18.36
2019-04-07T08:13:28.993Z,18.17
